Time;durP1;ratioP1;P1;durP2;ratioP2;P2;SDS_P1;SDS_P2;PMS_P1;PMS_P2;Temp;Humidity;BMP_temperature;BMP_pressure;BME280_temperature;BME280_humidity;BME280_pressure;Samples;Min_cycle;Max_cycle;Signal;HPM_P1;HPM_P2
2023/04/27 00:01:14;;;;;;;9.40;4.97;;;3.30;99.90;;;;;;5173440;27;20045;-53
2023/04/27 00:03:41;;;;;;;12.38;4.70;;;3.30;99.90;;;;;;5173091;27;20034;-52
2023/04/27 00:06:09;;;;;;;10.20;4.70;;;3.30;99.90;;;;;;5174361;27;20049;-58
2023/04/27 00:08:35;;;;;;;10.15;4.70;;;3.50;99.90;;;;;;5172540;27;20026;-55
2023/04/27 00:11:01;;;;;;;16.00;5.60;;;3.20;99.90;;;;;;5172978;27;20150;-56
2023/04/27 00:13:27;;;;;;;12.18;5.45;;;3.20;99.90;;;;;;5173192;27;20083;-54
2023/04/27 00:15:53;;;;;;;12.40;4.68;;;3.30;99.90;;;;;;5174033;27;20094;-53
2023/04/27 00:18:18;;;;;;;10.93;5.20;;;3.10;99.90;;;;;;5171549;27;20034;-58
2023/04/27 00:20:44;;;;;;;9.23;4.65;;;3.10;99.90;;;;;;5169459;27;20496;-58
2023/04/27 00:23:10;;;;;;;7.45;4.40;;;3.00;99.90;;;;;;5167622;27;20031;-56
2023/04/27 00:25:36;;;;;;;11.27;4.45;;;3.00;99.90;;;;;;5173155;27;20041;-55
2023/04/27 00:28:01;;;;;;;9.45;4.07;;;3.00;99.90;;;;;;5172264;27;20473;-54
2023/04/27 00:30:27;;;;;;;11.95;4.40;;;3.00;99.90;;;;;;5172665;27;20034;-54
2023/04/27 00:32:53;;;;;;;8.65;4.30;;;3.00;99.90;;;;;;5139833;27;20049;-55
2023/04/27 00:35:19;;;;;;;9.60;4.72;;;3.00;99.90;;;;;;5173103;27;20124;-57
2023/04/27 00:37:45;;;;;;;10.32;4.28;;;2.90;99.90;;;;;;5172064;27;20036;-56
2023/04/27 00:40:11;;;;;;;8.27;4.30;;;3.00;99.90;;;;;;5172128;27;20038;-55
2023/04/27 00:42:37;;;;;;;11.40;4.80;;;2.90;99.90;;;;;;5132877;27;20114;-59
2023/04/27 00:45:04;;;;;;;9.38;4.35;;;2.90;99.90;;;;;;5154813;27;20034;-55
2023/04/27 00:47:31;;;;;;;10.60;4.15;;;2.90;99.90;;;;;;5170781;27;20035;-56
2023/04/27 00:49:57;;;;;;;10.32;4.28;;;2.80;99.90;;;;;;5172626;27;20484;-56
2023/04/27 00:52:22;;;;;;;8.52;4.20;;;2.80;99.90;;;;;;5132589;27;20051;-55
2023/04/27 00:54:52;;;;;;;8.50;4.28;;;2.80;99.90;;;;;;5169782;27;20038;-58
2023/04/27 00:57:18;;;;;;;7.40;4.22;;;2.80;99.90;;;;;;5171747;27;20117;-55
2023/04/27 00:59:44;;;;;;;9.60;4.60;;;2.70;99.90;;;;;;5173151;27;20034;-58
2023/04/27 01:02:11;;;;;;;9.07;4.22;;;2.70;99.90;;;;;;5171874;27;20129;-55
2023/04/27 01:04:37;;;;;;;8.65;4.40;;;2.70;99.90;;;;;;5172047;27;20069;-56
2023/04/27 01:07:03;;;;;;;7.57;4.28;;;2.60;99.90;;;;;;5171843;27;20485;-56
2023/04/27 01:09:29;;;;;;;8.25;4.60;;;2.60;99.90;;;;;;5171437;27;20045;-56
2023/04/27 01:11:54;;;;;;;11.95;4.70;;;2.60;99.90;;;;;;5170556;27;20469;-53
2023/04/27 01:14:20;;;;;;;9.98;4.63;;;2.50;99.90;;;;;;5172438;27;20045;-57
2023/04/27 01:16:46;;;;;;;7.25;3.95;;;2.80;99.90;;;;;;5171147;27;20045;-58
2023/04/27 01:19:12;;;;;;;8.65;4.60;;;2.50;99.90;;;;;;5170325;27;20041;-57
2023/04/27 01:21:38;;;;;;;10.45;5.45;;;2.50;99.90;;;;;;5171112;27;20121;-58
2023/04/27 01:24:07;;;;;;;9.10;5.32;;;2.50;99.90;;;;;;5172571;27;20168;-56
2023/04/27 01:26:33;;;;;;;8.98;4.60;;;2.50;99.90;;;;;;5171201;27;20038;-51
2023/04/27 01:28:59;;;;;;;10.13;4.75;;;2.50;99.90;;;;;;5171389;27;20040;-58
2023/04/27 01:31:25;;;;;;;11.27;5.00;;;2.50;99.90;;;;;;5151254;27;20046;-57
2023/04/27 01:33:50;;;;;;;10.43;4.82;;;2.40;99.90;;;;;;5171705;27;20041;-56
2023/04/27 01:36:16;;;;;;;9.25;5.15;;;2.50;99.90;;;;;;5173651;27;20090;-56
2023/04/27 01:38:42;;;;;;;12.55;4.90;;;2.40;99.90;;;;;;5173184;27;20085;-58
2023/04/27 01:41:08;;;;;;;9.70;5.30;;;2.40;99.90;;;;;;5171093;27;20421;-58
2023/04/27 01:43:37;;;;;;;9.63;5.60;;;2.40;99.90;;;;;;5150259;27;20027;-55
2023/04/27 01:46:11;;;;;;;12.73;5.78;;;2.40;99.90;;;;;;5162706;27;20053;-56
2023/04/27 01:48:38;;;;;;;11.32;5.72;;;2.40;99.90;;;;;;5171512;27;20077;-55
2023/04/27 01:51:04;;;;;;;11.82;6.00;;;2.40;99.90;;;;;;5172815;27;20030;-55
2023/04/27 01:53:30;;;;;;;12.52;5.60;;;2.40;99.90;;;;;;5173508;27;20113;-55
2023/04/27 01:55:56;;;;;;;11.90;5.93;;;2.40;99.90;;;;;;5169369;27;20160;-57
2023/04/27 01:58:21;;;;;;;12.88;6.40;;;2.30;99.90;;;;;;5140819;27;20035;-54
2023/04/27 02:00:47;;;;;;;13.20;6.43;;;2.40;99.90;;;;;;5162577;27;20037;-56
2023/04/27 02:03:13;;;;;;;11.70;5.82;;;2.30;99.90;;;;;;5171330;27;20042;-56
2023/04/27 02:05:39;;;;;;;13.27;6.05;;;2.30;99.90;;;;;;5172839;27;20031;-55
2023/04/27 02:08:05;;;;;;;15.15;6.25;;;2.30;99.90;;;;;;5173140;27;20061;-55
2023/04/27 02:10:30;;;;;;;10.48;5.57;;;2.30;99.90;;;;;;5170326;27;20047;-58
2023/04/27 02:12:56;;;;;;;13.85;6.40;;;2.30;99.90;;;;;;5171331;27;20038;-58
2023/04/27 02:15:22;;;;;;;11.48;6.43;;;2.20;99.90;;;;;;5138135;27;20030;-55
2023/04/27 02:17:48;;;;;;;15.43;6.18;;;2.20;99.90;;;;;;5170760;27;20034;-56
2023/04/27 02:20:14;;;;;;;14.05;6.32;;;2.20;99.90;;;;;;5135178;27;20039;-57
2023/04/27 02:22:43;;;;;;;17.48;6.53;;;2.20;99.90;;;;;;5131604;27;20039;-58
2023/04/27 02:25:12;;;;;;;12.52;6.03;;;2.20;99.90;;;;;;5132398;27;20027;-52
2023/04/27 02:27:39;;;;;;;13.23;6.32;;;2.10;99.90;;;;;;5172196;27;20388;-55
2023/04/27 02:30:10;;;;;;;13.10;6.07;;;2.10;99.90;;;;;;5170079;27;20513;-58
2023/04/27 02:32:36;;;;;;;13.35;6.15;;;2.10;99.90;;;;;;5169892;27;20053;-53
2023/04/27 02:35:03;;;;;;;11.75;5.35;;;2.10;99.90;;;;;;5170439;27;20038;-55
2023/04/27 02:37:29;;;;;;;14.13;6.13;;;2.10;99.90;;;;;;5155648;27;20589;-56
2023/04/27 02:39:54;;;;;;;11.77;5.55;;;2.00;99.90;;;;;;5170659;27;20042;-52
2023/04/27 02:42:20;;;;;;;13.05;6.43;;;2.00;99.90;;;;;;5170731;27;20121;-57
2023/04/27 02:44:46;;;;;;;13.18;6.00;;;2.00;99.90;;;;;;5169966;27;20070;-57
2023/04/27 02:47:12;;;;;;;15.63;7.35;;;2.00;99.90;;;;;;5171434;27;20023;-58
2023/04/27 02:49:38;;;;;;;12.48;6.05;;;1.90;99.90;;;;;;5170094;27;20405;-56
2023/04/27 02:52:05;;;;;;;18.42;7.03;;;1.90;99.90;;;;;;5170568;27;20053;-56
2023/04/27 02:54:34;;;;;;;12.95;6.25;;;2.60;99.90;;;;;;5171033;27;20142;-52
2023/04/27 02:57:00;;;;;;;14.63;6.30;;;1.90;99.90;;;;;;5139965;27;20078;-54
2023/04/27 02:59:26;;;;;;;12.93;6.30;;;1.80;99.90;;;;;;5136730;27;20519;-55
2023/04/27 03:01:51;;;;;;;12.75;6.25;;;1.70;99.90;;;;;;5171454;27;20042;-58
2023/04/27 03:04:17;;;;;;;12.98;6.78;;;1.70;99.90;;;;;;5170879;27;20030;-55
2023/04/27 03:06:44;;;;;;;13.93;6.90;;;1.70;99.90;;;;;;5153936;27;20098;-57
2023/04/27 03:09:09;;;;;;;12.82;6.38;;;1.60;99.90;;;;;;5175087;27;20038;-58
2023/04/27 03:11:35;;;;;;;14.80;6.57;;;1.70;99.90;;;;;;5143951;27;20046;-55
2023/04/27 03:14:02;;;;;;;15.07;6.80;;;1.70;99.90;;;;;;5124318;27;20046;-52
2023/04/27 03:16:27;;;;;;;15.50;6.63;;;1.70;99.90;;;;;;5174533;27;20552;-52
2023/04/27 03:18:53;;;;;;;12.57;6.40;;;1.70;99.90;;;;;;5174255;27;20117;-57
2023/04/27 03:21:19;;;;;;;12.35;6.50;;;1.70;99.90;;;;;;5175936;27;20470;-54
2023/04/27 03:23:45;;;;;;;11.85;5.90;;;1.60;99.90;;;;;;5174026;27;20105;-51
2023/04/27 03:26:13;;;;;;;15.25;7.43;;;1.50;99.90;;;;;;5173732;27;20484;-57
2023/04/27 03:28:39;;;;;;;14.32;6.40;;;1.60;99.90;;;;;;5175057;27;20034;-56
2023/04/27 03:31:09;;;;;;;14.25;6.30;;;1.50;99.90;;;;;;5173711;27;20034;-56
2023/04/27 03:33:36;;;;;;;13.93;6.45;;;1.50;99.90;;;;;;5174434;27;20076;-58
2023/04/27 03:36:03;;;;;;;16.50;7.18;;;1.50;99.90;;;;;;5175907;27;20076;-53
2023/04/27 03:38:29;;;;;;;12.70;6.22;;;1.50;99.90;;;;;;5175543;27;20039;-56
2023/04/27 03:40:56;;;;;;;10.93;6.13;;;1.40;99.90;;;;;;5165361;27;20030;-57
2023/04/27 03:43:23;;;;;;;14.88;6.57;;;1.40;99.90;;;;;;5174121;27;20392;-54
2023/04/27 03:45:49;;;;;;;14.95;6.10;;;1.40;99.90;;;;;;5172445;27;20031;-56
2023/04/27 03:48:16;;;;;;;12.73;5.88;;;1.40;99.90;;;;;;5144386;27;20058;-55
2023/04/27 03:50:42;;;;;;;12.95;6.40;;;1.40;99.90;;;;;;5138691;27;20041;-56
2023/04/27 03:53:08;;;;;;;14.18;5.97;;;1.40;99.90;;;;;;5172185;27;20052;-51
2023/04/27 03:55:38;;;;;;;11.75;5.45;;;1.40;99.90;;;;;;5173475;27;20089;-56
2023/04/27 03:58:05;;;;;;;13.82;6.43;;;1.40;99.90;;;;;;5171244;27;20042;-54
2023/04/27 04:00:30;;;;;;;15.25;7.28;;;1.40;99.90;;;;;;5175237;27;20042;-56
2023/04/27 04:02:56;;;;;;;13.80;6.35;;;1.40;99.90;;;;;;5175049;27;20393;-56
2023/04/27 04:05:22;;;;;;;20.38;7.25;;;1.40;99.90;;;;;;5140431;27;20037;-55
2023/04/27 04:07:48;;;;;;;17.90;7.43;;;1.40;99.90;;;;;;5172472;27;20026;-55
2023/04/27 04:10:13;;;;;;;16.48;7.90;;;1.40;99.90;;;;;;5172596;27;20026;-56
2023/04/27 04:12:39;;;;;;;17.17;7.72;;;1.40;99.90;;;;;;5172439;27;20045;-53
2023/04/27 04:15:06;;;;;;;16.63;7.45;;;1.40;99.90;;;;;;5168981;27;20126;-55
2023/04/27 04:17:32;;;;;;;19.02;8.50;;;1.30;99.90;;;;;;5172254;27;20388;-51
2023/04/27 04:19:59;;;;;;;17.13;8.32;;;1.30;99.90;;;;;;5159987;27;20486;-56
2023/04/27 04:22:25;;;;;;;17.60;7.80;;;1.40;99.90;;;;;;5172390;27;20038;-54
2023/04/27 04:24:51;;;;;;;14.55;7.05;;;1.40;99.90;;;;;;5155844;27;20049;-56
2023/04/27 04:27:17;;;;;;;16.98;8.23;;;1.30;99.90;;;;;;5172119;27;20087;-54
2023/04/27 04:29:42;;;;;;;15.18;7.18;;;1.30;99.90;;;;;;5172770;27;20037;-55
2023/04/27 04:32:08;;;;;;;16.30;7.75;;;1.30;99.90;;;;;;5163145;27;20041;-56
2023/04/27 04:34:35;;;;;;;14.63;6.65;;;1.30;99.90;;;;;;5173602;27;20433;-54
2023/04/27 04:37:01;;;;;;;22.35;7.20;;;1.30;99.90;;;;;;5172011;27;20038;-58
2023/04/27 04:39:30;;;;;;;15.90;6.90;;;1.30;99.90;;;;;;5172885;27;20090;-53
2023/04/27 04:41:56;;;;;;;13.95;7.03;;;1.30;99.90;;;;;;5171759;27;20050;-57
2023/04/27 04:44:22;;;;;;;14.38;6.43;;;1.20;99.90;;;;;;5173661;27;20552;-58
2023/04/27 04:46:47;;;;;;;17.52;7.45;;;1.30;99.90;;;;;;5171417;27;20030;-55
2023/04/27 04:49:13;;;;;;;13.77;6.30;;;1.20;99.90;;;;;;5139428;27;20051;-56
2023/04/27 04:51:43;;;;;;;12.93;6.35;;;1.20;99.90;;;;;;5130454;27;20402;-56
2023/04/27 04:54:09;;;;;;;13.38;6.70;;;1.20;99.90;;;;;;5156470;27;20110;-57
2023/04/27 04:56:35;;;;;;;14.18;6.97;;;1.20;99.90;;;;;;5132800;27;20096;-57
2023/04/27 04:59:01;;;;;;;13.88;6.60;;;1.20;99.90;;;;;;5157668;27;20053;-56
2023/04/27 05:01:26;;;;;;;16.98;6.95;;;1.30;99.90;;;;;;5170278;27;20077;-54
2023/04/27 05:03:52;;;;;;;16.17;6.63;;;1.40;99.90;;;;;;5172546;27;20070;-52
2023/04/27 05:06:18;;;;;;;13.52;6.25;;;1.30;99.90;;;;;;5172061;27;20038;-59
2023/04/27 05:08:43;;;;;;;17.25;6.38;;;1.40;99.90;;;;;;5138160;27;20035;-55
2023/04/27 05:11:10;;;;;;;16.20;7.32;;;1.50;99.90;;;;;;5169774;27;20090;-56
2023/04/27 05:13:37;;;;;;;16.80;7.68;;;1.50;99.90;;;;;;5171428;27;20077;-59
2023/04/27 05:16:06;;;;;;;15.98;7.75;;;1.60;99.90;;;;;;5172496;27;20046;-56
2023/04/27 05:18:33;;;;;;;16.23;7.63;;;1.70;99.90;;;;;;5173859;27;20087;-55
2023/04/27 05:20:59;;;;;;;15.68;8.02;;;1.70;99.90;;;;;;5146682;27;20038;-51
2023/04/27 05:23:25;;;;;;;14.40;7.65;;;1.70;99.90;;;;;;5155605;27;20034;-55
2023/04/27 05:25:51;;;;;;;17.48;7.72;;;1.80;99.90;;;;;;5130977;27;20122;-58
2023/04/27 05:28:17;;;;;;;16.90;7.82;;;1.80;99.90;;;;;;5136382;27;20056;-55
2023/04/27 05:30:42;;;;;;;16.77;8.23;;;1.90;99.90;;;;;;5129994;27;20027;-57
2023/04/27 05:33:08;;;;;;;20.27;9.02;;;2.00;99.90;;;;;;5155866;27;20026;-57
2023/04/27 05:35:34;;;;;;;21.95;9.60;;;2.10;99.90;;;;;;5152793;27;20030;-58
2023/04/27 05:38:00;;;;;;;24.13;9.60;;;2.20;99.90;;;;;;5172391;27;20034;-58
2023/04/27 05:40:26;;;;;;;16.83;8.52;;;2.40;99.90;;;;;;5170992;27;20056;-54
2023/04/27 05:42:52;;;;;;;16.40;9.13;;;2.60;99.90;;;;;;5171658;27;20086;-58
2023/04/27 05:45:18;;;;;;;19.40;8.80;;;2.70;99.90;;;;;;5170555;27;20030;-57
2023/04/27 05:47:44;;;;;;;18.73;8.85;;;2.70;99.90;;;;;;5171156;27;20438;-54
2023/04/27 05:50:10;;;;;;;19.85;9.10;;;2.80;99.90;;;;;;5170566;27;20090;-51
2023/04/27 05:52:36;;;;;;;19.63;9.50;;;2.80;99.90;;;;;;5171752;27;20099;-55
2023/04/27 05:55:02;;;;;;;18.77;9.27;;;2.80;99.90;;;;;;5170201;27;20042;-57
2023/04/27 05:57:29;;;;;;;20.17;9.82;;;2.90;99.90;;;;;;5168968;27;20046;-55
2023/04/27 05:59:55;;;;;;;14.82;8.57;;;2.90;99.90;;;;;;5171194;27;20114;-57
2023/04/27 06:02:21;;;;;;;14.93;9.05;;;2.90;99.90;;;;;;5166341;27;20038;-53
2023/04/27 06:04:47;;;;;;;17.05;9.02;;;3.00;99.90;;;;;;5169544;27;20358;-57
2023/04/27 06:07:14;;;;;;;18.45;9.57;;;3.10;99.90;;;;;;5171095;27;20037;-55
2023/04/27 06:09:41;;;;;;;18.08;9.95;;;3.10;99.90;;;;;;5171013;27;20035;-53
2023/04/27 06:12:07;;;;;;;14.52;8.63;;;3.20;99.90;;;;;;5142833;27;20477;-52
2023/04/27 06:14:34;;;;;;;16.55;8.02;;;3.20;99.90;;;;;;5159252;27;20042;-56
2023/04/27 06:17:00;;;;;;;17.40;9.13;;;3.30;99.90;;;;;;5142586;27;20042;-55
2023/04/27 06:19:26;;;;;;;15.35;8.85;;;3.40;99.90;;;;;;5160759;27;20050;-56
2023/04/27 06:21:55;;;;;;;18.45;9.68;;;3.40;99.90;;;;;;5172850;27;20388;-57
2023/04/27 06:24:21;;;;;;;18.80;9.38;;;3.50;99.90;;;;;;5172872;27;20484;-55
2023/04/27 06:26:50;;;;;;;16.83;8.80;;;3.60;99.90;;;;;;5171337;27;20121;-55
2023/04/27 06:29:16;;;;;;;15.73;8.80;;;3.70;99.90;;;;;;5130404;27;20034;-56
2023/04/27 06:31:41;;;;;;;16.20;8.77;;;3.70;99.90;;;;;;5158355;27;20507;-53
2023/04/27 06:34:07;;;;;;;15.30;8.65;;;3.80;99.90;;;;;;5171123;27;20044;-55
2023/04/27 06:36:33;;;;;;;16.10;7.72;;;3.90;99.90;;;;;;5172708;27;20031;-59
2023/04/27 06:38:59;;;;;;;14.63;7.97;;;4.10;99.90;;;;;;5163683;27;20043;-55
2023/04/27 06:41:25;;;;;;;14.07;7.18;;;4.20;99.90;;;;;;5170628;27;20113;-57
2023/04/27 06:43:51;;;;;;;13.15;7.30;;;4.30;99.90;;;;;;5173927;27;20042;-53
2023/04/27 06:46:18;;;;;;;12.43;6.97;;;4.40;99.90;;;;;;5137045;27;20076;-57
2023/04/27 06:48:45;;;;;;;12.45;6.15;;;4.60;99.90;;;;;;5156829;27;20434;-57
2023/04/27 06:51:11;;;;;;;13.98;6.07;;;4.60;99.90;;;;;;5134238;27;20053;-56
2023/04/27 06:53:38;;;;;;;9.73;5.22;;;4.60;99.90;;;;;;5132066;27;20030;-57
2023/04/27 06:56:04;;;;;;;8.25;4.35;;;4.70;99.90;;;;;;5158115;27;20107;-55
2023/04/27 06:58:30;;;;;;;11.52;4.43;;;4.80;99.90;;;;;;5157981;27;20035;-57
2023/04/27 07:00:56;;;;;;;8.35;4.78;;;4.90;99.90;;;;;;5152806;27;20083;-56
2023/04/27 07:03:22;;;;;;;10.88;4.40;;;4.90;99.90;;;;;;5155870;27;20049;-55
2023/04/27 07:05:47;;;;;;;10.88;4.72;;;5.00;99.90;;;;;;5160743;27;20651;-56
2023/04/27 07:08:13;;;;;;;10.60;4.50;;;5.00;99.90;;;;;;5155830;27;20121;-55
2023/04/27 07:10:39;;;;;;;12.20;4.40;;;5.20;99.90;;;;;;5156700;27;20098;-57
2023/04/27 07:13:05;;;;;;;10.18;4.88;;;5.20;99.90;;;;;;5159910;27;20038;-56
2023/04/27 07:15:31;;;;;;;13.55;4.80;;;5.30;99.90;;;;;;5157626;27;20086;-56
2023/04/27 07:17:56;;;;;;;10.38;4.15;;;5.40;99.90;;;;;;5157542;27;20035;-59
2023/04/27 07:20:22;;;;;;;9.65;4.75;;;5.50;99.90;;;;;;5155373;27;20027;-59
2023/04/27 07:22:48;;;;;;;10.50;4.18;;;5.60;99.90;;;;;;5155528;27;20469;-51
2023/04/27 07:25:14;;;;;;;6.53;3.70;;;5.80;99.90;;;;;;5155880;27;20032;-55
2023/04/27 07:27:40;;;;;;;8.85;4.53;;;5.80;99.90;;;;;;5133103;27;20035;-58
2023/04/27 07:30:08;;;;;;;7.72;4.40;;;5.90;99.90;;;;;;5153601;27;20038;-52
2023/04/27 07:32:35;;;;;;;7.30;3.75;;;6.00;99.90;;;;;;5131275;27;20485;-53
2023/04/27 07:35:01;;;;;;;8.10;3.42;;;6.10;99.90;;;;;;5158096;27;20044;-53
2023/04/27 07:37:27;;;;;;;10.07;3.90;;;6.10;99.90;;;;;;5128161;27;20126;-58
2023/04/27 07:39:53;;;;;;;10.75;4.00;;;6.20;99.90;;;;;;5155408;27;20036;-53
2023/04/27 07:42:21;;;;;;;10.95;4.03;;;6.30;99.90;;;;;;5156133;27;20088;-57
2023/04/27 07:44:49;;;;;;;13.07;3.80;;;6.30;99.90;;;;;;5149409;27;20050;-56
2023/04/27 07:47:15;;;;;;;6.68;3.88;;;6.50;99.90;;;;;;5127961;27;20101;-57
2023/04/27 07:49:40;;;;;;;7.10;3.88;;;6.60;99.90;;;;;;5128243;27;20056;-52
2023/04/27 07:52:07;;;;;;;7.10;3.53;;;6.60;99.90;;;;;;5133416;27;20497;-57
2023/04/27 07:54:34;;;;;;;9.88;4.07;;;6.70;99.90;;;;;;5125988;27;20117;-51
2023/04/27 07:57:01;;;;;;;8.32;3.30;;;6.70;99.90;;;;;;5151302;27;20480;-53
2023/04/27 07:59:29;;;;;;;7.45;3.70;;;6.80;99.90;;;;;;5153823;27;20053;-55
2023/04/27 08:01:54;;;;;;;10.60;3.72;;;6.80;99.90;;;;;;5144648;27;20054;-53
2023/04/27 08:04:20;;;;;;;7.78;3.47;;;6.90;99.90;;;;;;5126032;27;20081;-53
2023/04/27 08:06:46;;;;;;;8.82;3.60;;;7.00;99.90;;;;;;5147577;27;20049;-57
2023/04/27 08:09:12;;;;;;;7.75;3.70;;;7.10;99.90;;;;;;5072992;27;20126;-53
2023/04/27 08:11:37;;;;;;;9.02;3.63;;;7.20;99.90;;;;;;5146710;27;20030;-55
2023/04/27 08:14:03;;;;;;;8.13;3.42;;;7.20;99.90;;;;;;5125380;27;20043;-58
2023/04/27 08:16:29;;;;;;;6.47;3.30;;;7.30;99.90;;;;;;5148679;27;20046;-55
2023/04/27 08:18:54;;;;;;;8.00;3.05;;;7.30;99.90;;;;;;5143675;27;20505;-58
2023/04/27 08:21:20;;;;;;;6.32;3.25;;;7.40;99.90;;;;;;5155609;27;20038;-53
2023/04/27 08:23:46;;;;;;;9.25;2.80;;;7.50;99.90;;;;;;5157790;27;20497;-54
2023/04/27 08:26:15;;;;;;;6.32;3.00;;;7.60;99.90;;;;;;5156602;27;20049;-54
2023/04/27 08:28:41;;;;;;;9.80;3.42;;;7.60;99.90;;;;;;5156775;27;20038;-56
2023/04/27 08:31:06;;;;;;;6.93;2.78;;;7.70;99.90;;;;;;5132298;27;20401;-53
2023/04/27 08:33:32;;;;;;;6.75;2.92;;;7.70;99.90;;;;;;5158660;27;20432;-57
2023/04/27 08:35:57;;;;;;;8.80;3.60;;;7.80;99.90;;;;;;5153095;27;20057;-58
2023/04/27 08:38:23;;;;;;;5.85;3.50;;;7.80;99.90;;;;;;5155534;27;20438;-56
2023/04/27 08:40:49;;;;;;;6.38;3.15;;;7.90;99.90;;;;;;5156146;27;20038;-56
2023/04/27 08:43:15;;;;;;;8.50;3.63;;;8.00;99.90;;;;;;5153516;27;20125;-56
2023/04/27 08:45:49;;;;;;;5.13;2.80;;;8.10;99.90;;;;;;5156672;27;20038;-57
2023/04/27 08:48:15;;;;;;;7.32;2.70;;;8.20;99.90;;;;;;5157086;27;20716;-55
2023/04/27 08:50:43;;;;;;;6.00;2.63;;;8.30;99.90;;;;;;5155525;27;20036;-56
2023/04/27 08:53:20;;;;;;;4.80;2.40;;;8.40;99.90;;;;;;5128502;27;20026;-55
2023/04/27 08:55:46;;;;;;;8.65;2.97;;;8.60;99.90;;;;;;5124590;27;20078;-55
2023/04/27 08:58:11;;;;;;;7.68;3.08;;;8.70;99.90;;;;;;5147631;27;20490;-55
2023/04/27 09:00:42;;;;;;;6.75;3.60;;;8.80;99.90;;;;;;5148338;27;20160;-51
2023/04/27 09:03:24;;;;;;;7.63;2.97;;;8.90;99.90;;;;;;5126974;27;20140;-55
2023/04/27 09:05:50;;;;;;;5.13;2.67;;;9.10;99.90;;;;;;5154398;27;20465;-55
2023/04/27 09:08:16;;;;;;;6.22;2.17;;;9.10;99.90;;;;;;5159161;27;20018;-55
2023/04/27 09:10:52;;;;;;;4.00;2.33;;;9.20;99.90;;;;;;5153720;27;20053;-57
2023/04/27 09:13:17;;;;;;;6.75;2.47;;;9.40;99.90;;;;;;5153497;27;20441;-59
2023/04/27 09:15:48;;;;;;;5.15;2.30;;;9.40;99.90;;;;;;5165864;27;20048;-57
2023/04/27 09:18:16;;;;;;;7.88;2.65;;;9.50;99.90;;;;;;5147890;27;20529;-56
2023/04/27 09:20:49;;;;;;;5.53;2.40;;;9.70;99.90;;;;;;5170835;27;20045;-55
2023/04/27 09:23:31;;;;;;;5.03;2.30;;;9.80;99.90;;;;;;5168683;27;20078;-56
2023/04/27 09:25:59;;;;;;;6.43;2.55;;;9.90;99.90;;;;;;5147733;27;20046;-55
2023/04/27 09:28:29;;;;;;;5.55;2.35;;;10.00;99.90;;;;;;5170238;27;20057;-58
2023/04/27 09:30:57;;;;;;;7.35;2.72;;;10.00;99.90;;;;;;5154686;27;20106;-55
2023/04/27 09:33:27;;;;;;;5.78;2.80;;;10.10;99.90;;;;;;5172118;27;20038;-57
2023/04/27 09:35:53;;;;;;;8.05;2.80;;;10.10;99.90;;;;;;5171220;27;20038;-56
2023/04/27 09:38:20;;;;;;;7.13;2.90;;;10.10;99.90;;;;;;5171110;27;20068;-55
2023/04/27 09:40:47;;;;;;;5.38;2.55;;;10.20;99.90;;;;;;5171734;27;20038;-57
2023/04/27 09:43:13;;;;;;;7.20;3.17;;;10.30;99.90;;;;;;5171761;27;20038;-57
2023/04/27 09:45:39;;;;;;;7.47;3.15;;;10.40;99.90;;;;;;5155014;27;20042;-57
2023/04/27 09:48:06;;;;;;;9.43;3.22;;;10.50;99.90;;;;;;5172055;27;20488;-58
2023/04/27 09:50:40;;;;;;;7.97;2.90;;;10.50;99.90;;;;;;5171886;27;20057;-57
2023/04/27 09:53:14;;;;;;;7.97;3.70;;;10.60;99.90;;;;;;5171558;27;20039;-58
2023/04/27 09:56:07;;;;;;;8.38;3.42;;;10.70;99.90;;;;;;5170970;27;20057;-57
2023/04/27 09:58:53;;;;;;;6.55;3.17;;;10.70;99.90;;;;;;5169881;27;20046;-56
2023/04/27 10:01:49;;;;;;;8.02;3.22;;;10.80;99.90;;;;;;5171993;27;20545;-55
2023/04/27 10:04:24;;;;;;;7.85;3.00;;;10.80;99.90;;;;;;5167363;27;20447;-54
2023/04/27 10:07:06;;;;;;;8.43;3.55;;;10.80;99.90;;;;;;5151421;27;20472;-58
2023/04/27 10:09:38;;;;;;;6.88;2.80;;;10.80;99.90;;;;;;5160320;27;20030;-59
2023/04/27 10:12:26;;;;;;;6.75;3.10;;;10.90;99.90;;;;;;5161145;27;20117;-57
2023/04/27 10:14:56;;;;;;;9.38;3.40;;;11.00;99.90;;;;;;5168643;27;20049;-60
2023/04/27 10:17:31;;;;;;;8.07;3.50;;;11.00;99.90;;;;;;5133405;27;20043;-56
2023/04/27 10:19:59;;;;;;;8.52;3.22;;;11.10;99.90;;;;;;5161194;27;20038;-55
2023/04/27 10:22:40;;;;;;;7.72;3.78;;;11.20;99.90;;;;;;5160942;27;20034;-53
2023/04/27 10:25:39;;;;;;;6.00;3.20;;;11.30;99.90;;;;;;5161226;27;20062;-60
2023/04/27 10:28:08;;;;;;;6.90;3.20;;;11.50;99.90;;;;;;5131735;27;20052;-56
2023/04/27 10:30:35;;;;;;;7.75;3.13;;;11.60;99.90;;;;;;5152882;27;20060;-58
2023/04/27 10:33:08;;;;;;;6.57;3.40;;;11.70;99.90;;;;;;5143892;27;20061;-56
2023/04/27 10:35:53;;;;;;;7.90;3.53;;;11.70;99.90;;;;;;5163584;27;20132;-60
2023/04/27 10:38:26;;;;;;;6.55;3.38;;;11.80;99.90;;;;;;5158194;27;20035;-56
2023/04/27 10:40:54;;;;;;;10.82;3.67;;;11.90;99.90;;;;;;5154915;27;20035;-60
2023/04/27 10:43:25;;;;;;;5.95;3.40;;;12.00;99.90;;;;;;5165358;27;20034;-58
2023/04/27 10:45:51;;;;;;;6.00;3.30;;;12.10;99.90;;;;;;5159868;27;20030;-60
2023/04/27 10:48:17;;;;;;;6.18;3.63;;;12.20;99.90;;;;;;5154928;27;20381;-58
2023/04/27 10:50:43;;;;;;;6.75;3.63;;;12.20;99.90;;;;;;5129993;27;20050;-58
2023/04/27 10:53:09;;;;;;;7.82;4.03;;;12.20;99.90;;;;;;5133571;27;20441;-56
2023/04/27 10:55:35;;;;;;;9.52;4.45;;;12.30;99.90;;;;;;5159198;27;20113;-53
2023/04/27 10:58:01;;;;;;;9.25;4.20;;;12.40;99.90;;;;;;5175021;27;20477;-57
2023/04/27 11:00:30;;;;;;;7.38;3.40;;;12.40;99.90;;;;;;5174241;27;20062;-57
2023/04/27 11:03:09;;;;;;;6.53;3.40;;;12.60;99.90;;;;;;5149187;27;20073;-60
2023/04/27 11:05:35;;;;;;;8.43;4.13;;;12.60;99.90;;;;;;5141263;27;20071;-58
2023/04/27 11:08:12;;;;;;;8.15;4.05;;;12.60;99.90;;;;;;5175078;27;20066;-56
2023/04/27 11:10:57;;;;;;;8.65;3.83;;;12.60;99.90;;;;;;5172946;27;20460;-58
2023/04/27 11:13:25;;;;;;;5.22;2.95;;;12.70;99.90;;;;;;5174922;27;20073;-57
2023/04/27 11:15:56;;;;;;;5.93;3.38;;;12.80;99.90;;;;;;5173049;27;20524;-59
2023/04/27 11:18:28;;;;;;;9.55;4.13;;;12.90;99.90;;;;;;5174770;27;20491;-51
2023/04/27 11:21:06;;;;;;;7.20;3.70;;;13.10;99.90;;;;;;5174304;27;20437;-55
2023/04/27 11:23:36;;;;;;;8.65;3.85;;;13.20;99.90;;;;;;5141312;27;20056;-56
2023/04/27 11:26:09;;;;;;;6.43;3.75;;;13.30;99.90;;;;;;5175276;27;20038;-55
2023/04/27 11:28:35;;;;;;;9.10;3.40;;;13.40;99.90;;;;;;5171792;27;20469;-56
2023/04/27 11:31:01;;;;;;;6.47;3.30;;;13.30;99.90;;;;;;5174695;27;20082;-54
2023/04/27 11:33:27;;;;;;;8.15;3.60;;;13.40;99.90;;;;;;5173394;27;20048;-53
2023/04/27 11:35:53;;;;;;;7.55;3.30;;;13.50;99.90;;;;;;5174387;27;20056;-52
2023/04/27 11:38:20;;;;;;;6.00;3.05;;;13.70;99.90;;;;;;5172881;27;20450;-55
2023/04/27 11:40:57;;;;;;;6.32;3.78;;;13.80;99.90;;;;;;5173460;27;20050;-58
2023/04/27 11:43:25;;;;;;;6.68;3.63;;;13.80;99.90;;;;;;5161485;27;20087;-55
2023/04/27 11:45:51;;;;;;;6.78;3.63;;;13.90;99.90;;;;;;5158368;27;20055;-57
2023/04/27 11:48:16;;;;;;;8.13;3.83;;;13.90;99.70;;;;;;5169938;27;20034;-56
2023/04/27 11:50:47;;;;;;;6.68;3.80;;;14.00;99.90;;;;;;5163163;27;20054;-59
2023/04/27 11:53:13;;;;;;;5.93;3.65;;;14.10;99.30;;;;;;5171044;27;20050;-59
2023/04/27 11:55:40;;;;;;;8.52;4.22;;;14.20;99.50;;;;;;5162887;27;20405;-56
2023/04/27 11:58:12;;;;;;;8.25;3.88;;;14.30;99.40;;;;;;5170176;27;20043;-56
2023/04/27 12:00:38;;;;;;;7.30;3.83;;;14.50;99.10;;;;;;5165477;27;20038;-55
2023/04/27 12:03:04;;;;;;;8.90;4.53;;;14.50;98.70;;;;;;5163731;27;20038;-55
2023/04/27 12:05:30;;;;;;;7.55;3.63;;;14.50;98.50;;;;;;5167713;27;20472;-56
2023/04/27 12:07:56;;;;;;;7.85;3.35;;;14.60;98.80;;;;;;5167597;27;20038;-58
2023/04/27 12:10:21;;;;;;;6.47;3.53;;;14.70;98.20;;;;;;5171863;27;20564;-56
2023/04/27 12:12:47;;;;;;;9.50;3.90;;;14.80;98.30;;;;;;5166721;27;20030;-55
2023/04/27 12:15:13;;;;;;;7.88;4.03;;;14.90;97.90;;;;;;5166332;27;20180;-58
2023/04/27 12:17:38;;;;;;;7.85;3.83;;;15.00;97.80;;;;;;5119702;27;20035;-53
2023/04/27 12:20:05;;;;;;;7.40;3.35;;;15.10;97.10;;;;;;5172724;27;20046;-56
2023/04/27 12:22:31;;;;;;;8.57;3.72;;;15.10;97.90;;;;;;5171270;27;20560;-56
2023/04/27 12:24:57;;;;;;;7.63;3.88;;;15.30;97.40;;;;;;5172882;27;20042;-54
2023/04/27 12:27:22;;;;;;;7.20;3.88;;;15.30;97.10;;;;;;5173140;27;20114;-56
2023/04/27 12:29:48;;;;;;;7.25;3.53;;;15.20;96.50;;;;;;5172735;27;20069;-54
2023/04/27 12:32:14;;;;;;;6.68;3.70;;;15.20;95.50;;;;;;5173803;27;20064;-55
2023/04/27 12:34:41;;;;;;;7.13;3.80;;;15.20;96.20;;;;;;5171904;27;20033;-56
2023/04/27 12:37:07;;;;;;;6.40;3.63;;;15.30;96.20;;;;;;5172849;27;20095;-57
2023/04/27 12:39:33;;;;;;;6.60;3.35;;;15.40;95.50;;;;;;5172351;27;20080;-57
2023/04/27 12:41:58;;;;;;;8.15;3.33;;;15.50;95.90;;;;;;5172742;27;20046;-56
2023/04/27 12:44:24;;;;;;;6.10;3.20;;;15.60;96.40;;;;;;5172413;27;20038;-56
2023/04/27 12:46:51;;;;;;;6.72;3.08;;;15.70;94.80;;;;;;5171836;27;20050;-57
2023/04/27 12:49:16;;;;;;;7.45;3.72;;;15.70;94.60;;;;;;5172213;27;20102;-56